Time;durP1;ratioP1;P1;durP2;ratioP2;P2;SDS_P1;SDS_P2;PMS_P1;PMS_P2;Temp;Humidity;BMP_temperature;BMP_pressure;BME280_temperature;BME280_humidity;BME280_pressure;Samples;Min_cycle;Max_cycle;Signal;HPM_P1;HPM_P2
2023/04/08 00:00:10;;;;;;;;;;;;;;;;;;137539;1273;22432;-80
2023/04/08 00:03:33;;;;;;;;;;;;;;;;;;137545;1273;22544;-80
2023/04/08 00:06:37;;;;;;;;;;;;;;;;;;137497;1273;22580;-79
2023/04/08 00:09:40;;;;;;;;;;;;;;;;;;137572;1273;22529;-79
2023/04/08 00:12:42;;;;;;;;;;;;;;;;;;137587;1273;22270;-79
2023/04/08 00:15:45;;;;;;;;;;;;;;;;;;137586;1273;22342;-79
2023/04/08 00:18:48;;;;;;;;;;;;;;;;;;137581;1273;22421;-79
2023/04/08 00:21:50;;;;;;;;;;;;;;;;;;137558;1273;22564;-80
2023/04/08 00:24:52;;;;;;;;;;;;;;;;;;137468;1273;22480;-79
2023/04/08 00:27:55;;;;;;;;;;;;;;;;;;137501;1273;22529;-79
2023/04/08 00:30:57;;;;;;;;;;;;;;;;;;137510;1273;22541;-79
2023/04/08 00:34:00;;;;;;;;;;;;;;;;;;137566;1273;22540;-80
2023/04/08 00:37:02;;;;;;;;;;;;;;;;;;137400;1273;22526;-79
2023/04/08 00:40:05;;;;;;;;;;;;;;;;;;137464;1273;22501;-79
2023/04/08 00:43:07;;;;;;;;;;;;;;;;;;137390;1273;22507;-79
2023/04/08 00:46:10;;;;;;;;;;;;;;;;;;137386;1273;22510;-79
2023/04/08 00:49:12;;;;;;;;;;;;;;;;;;137520;1273;22966;-79
2023/04/08 00:52:15;;;;;;;;;;;;;;;;;;137575;1273;22265;-79
2023/04/08 00:55:18;;;;;;;;;;;;;;;;;;137494;1273;22521;-79
2023/04/08 00:58:20;;;;;;;;;;;;;;;;;;137476;1273;22642;-79
2023/04/08 01:01:23;;;;;;;;;;;;;;;;;;137534;1273;22582;-82
2023/04/08 01:04:25;;;;;;;;;;;;;;;;;;137530;1273;22501;-79
2023/04/08 01:07:28;;;;;;;;;;;;;;;;;;137500;1273;22944;-79
2023/04/08 01:10:30;;;;;;;;;;;;;;;;;;137553;1273;22882;-79
2023/04/08 01:13:33;;;;;;;;;;;;;;;;;;137484;1273;22537;-79
2023/04/08 01:16:35;;;;;;;;;;;;;;;;;;137561;1273;22507;-80
2023/04/08 01:19:37;;;;;;;;;;;;;;;;;;137489;1273;22557;-79
2023/04/08 01:22:40;;;;;;;;;;;;;;;;;;137611;1273;22502;-79
2023/04/08 01:25:42;;;;;;;;;;;;;;;;;;137501;1273;22529;-79
2023/04/08 01:28:45;;;;;;;;;;;;;;;;;;137495;1273;22536;-79
2023/04/08 01:31:47;;;;;;;;;;;;;;;;;;137407;1273;22494;-79
2023/04/08 01:34:49;;;;;;;;;;;;;;;;;;137608;1273;22337;-79
2023/04/08 01:37:52;;;;;;;;;;;;;;;;;;137549;1273;22501;-79
2023/04/08 01:40:54;;;;;;;;;;;;;;;;;;137608;1273;22327;-79
2023/04/08 01:43:56;;;;;;;;;;;;;;;;;;137574;1273;22311;-79
2023/04/08 01:46:59;;;;;;;;;;;;;;;;;;137595;1270;22309;-79
2023/04/08 01:50:02;;;;;;;;;;;;;;;;;;137559;1273;22366;-79
2023/04/08 01:53:04;;;;;;;;;;;;;;;;;;137529;1273;22307;-79
2023/04/08 01:56:07;;;;;;;;;;;;;;;;;;137531;1273;22403;-80
2023/04/08 01:59:09;;;;;;;;;;;;;;;;;;137555;1273;22403;-79
2023/04/08 02:02:12;;;;;;;;;;;;;;;;;;137538;1273;22773;-79
2023/04/08 02:05:14;;;;;;;;;;;;;;;;;;137577;1273;22326;-79
2023/04/08 02:08:16;;;;;;;;;;;;;;;;;;137485;1273;22990;-79
2023/04/08 02:11:20;;;;;;;;;;;;;;;;;;137474;1273;22541;-79
2023/04/08 02:14:22;;;;;;;;;;;;;;;;;;137485;1273;22526;-78
2023/04/08 02:17:25;;;;;;;;;;;;;;;;;;137570;1273;22343;-79
2023/04/08 02:20:28;;;;;;;;;;;;;;;;;;137582;1273;22380;-79
2023/04/08 02:23:30;;;;;;;;;;;;;;;;;;137528;1273;22506;-80
2023/04/08 02:26:33;;;;;;;;;;;;;;;;;;137456;1268;22533;-80
2023/04/08 02:29:35;;;;;;;;;;;;;;;;;;137447;1273;22910;-80
2023/04/08 02:32:38;;;;;;;;;;;;;;;;;;137573;1271;22497;-80
2023/04/08 02:35:40;;;;;;;;;;;;;;;;;;137454;1273;22518;-80
2023/04/08 02:38:43;;;;;;;;;;;;;;;;;;137460;1273;22528;-79
2023/04/08 02:41:45;;;;;;;;;;;;;;;;;;137627;1273;22604;-80
2023/04/08 02:44:47;;;;;;;;;;;;;;;;;;137514;1273;22541;-80
2023/04/08 02:47:50;;;;;;;;;;;;;;;;;;137514;1273;22495;-80
2023/04/08 02:50:52;;;;;;;;;;;;;;;;;;137539;1273;22491;-79
2023/04/08 02:53:55;;;;;;;;;;;;;;;;;;137589;1273;22812;-80
2023/04/08 02:56:57;;;;;;;;;;;;;;;;;;137514;1273;22510;-80
2023/04/08 03:00:00;;;;;;;;;;;;;;;;;;137545;1273;22503;-80
2023/04/08 03:03:02;;;;;;;;;;;;;;;;;;137551;1273;22559;-81
2023/04/08 03:06:04;;;;;;;;;;;;;;;;;;137468;1273;22485;-80
2023/04/08 03:09:07;;;;;;;;;;;;;;;;;;137459;1273;22554;-79
2023/04/08 03:12:12;;;;;;;;;;;;;;;;;;137602;1273;22323;-79
2023/04/08 03:15:14;;;;;;;;;;;;;;;;;;137494;1273;23117;-80
2023/04/08 03:18:16;;;;;;;;;;;;;;;;;;137604;1273;22504;-80
2023/04/08 03:21:19;;;;;;;;;;;;;;;;;;137520;1273;22489;-80
2023/04/08 03:24:22;;;;;;;;;;;;;;;;;;137608;1273;22254;-79
2023/04/08 03:27:24;;;;;;;;;;;;;;;;;;137634;1273;22321;-80
2023/04/08 03:30:27;;;;;;;;;;;;;;;;;;137565;1273;22368;-80
2023/04/08 03:33:29;;;;;;;;;;;;;;;;;;137631;1273;22756;-80
2023/04/08 03:36:31;;;;;;;;;;;;;;;;;;137608;1273;22240;-80
2023/04/08 03:39:34;;;;;;;;;;;;;;;;;;137605;1273;22921;-79
2023/04/08 03:42:36;;;;;;;;;;;;;;;;;;137660;1273;22283;-80
2023/04/08 03:45:39;;;;;;;;;;;;;;;;;;137635;1273;22327;-80
2023/04/08 03:48:41;;;;;;;;;;;;;;;;;;137577;1273;22482;-80
2023/04/08 03:51:44;;;;;;;;;;;;;;;;;;137621;1273;22344;-80
2023/04/08 03:54:46;;;;;;;;;;;;;;;;;;137562;1273;22495;-80
2023/04/08 03:57:48;;;;;;;;;;;;;;;;;;137493;1273;22555;-80
2023/04/08 04:00:51;;;;;;;;;;;;;;;;;;137606;1273;22375;-79
2023/04/08 04:03:53;;;;;;;;;;;;;;;;;;137527;1274;22482;-80
2023/04/08 04:06:56;;;;;;;;;;;;;;;;;;137382;1273;22542;-79
2023/04/08 04:09:58;;;;;;;;;;;;;;;;;;137580;1273;22317;-79
2023/04/08 04:13:01;;;;;;;;;;;;;;;;;;137524;1273;22541;-80
2023/04/08 04:16:03;;;;;;;;;;;;;;;;;;137574;1273;22386;-79
2023/04/08 04:19:05;;;;;;;;;;;;;;;;;;137564;1273;22341;-79
2023/04/08 04:22:08;;;;;;;;;;;;;;;;;;137515;1273;22503;-80
2023/04/08 04:25:10;;;;;;;;;;;;;;;;;;137567;1273;22427;-79
2023/04/08 04:28:13;;;;;;;;;;;;;;;;;;137402;1273;22341;-80
2023/04/08 04:31:16;;;;;;;;;;;;;;;;;;137515;1273;22293;-80
2023/04/08 04:34:18;;;;;;;;;;;;;;;;;;137537;1273;22331;-79
2023/04/08 04:37:21;;;;;;;;;;;;;;;;;;137508;1273;22267;-79
2023/04/08 04:40:23;;;;;;;;;;;;;;;;;;137553;1273;22279;-79
2023/04/08 04:43:26;;;;;;;;;;;;;;;;;;137529;1273;22286;-79
2023/04/08 04:46:28;;;;;;;;;;;;;;;;;;137593;1273;22327;-79
2023/04/08 04:49:31;;;;;;;;;;;;;;;;;;137595;1271;22407;-80
2023/04/08 04:52:33;;;;;;;;;;;;;;;;;;137602;1263;22746;-81
2023/04/08 04:55:35;;;;;;;;;;;;;;;;;;137577;1273;22835;-81
2023/04/08 04:58:38;;;;;;;;;;;;;;;;;;137523;1273;22522;-81
2023/04/08 05:01:40;;;;;;;;;;;;;;;;;;137511;1274;22312;-82
2023/04/08 05:04:43;;;;;;;;;;;;;;;;;;137481;1271;22323;-82
2023/04/08 05:07:45;;;;;;;;;;;;;;;;;;137495;1273;22274;-82
2023/04/08 05:10:49;;;;;;;;;;;;;;;;;;137520;1273;22330;-82
2023/04/08 05:13:51;;;;;;;;;;;;;;;;;;137523;1274;22458;-81
2023/04/08 05:16:53;;;;;;;;;;;;;;;;;;137521;1273;22321;-81
2023/04/08 05:19:56;;;;;;;;;;;;;;;;;;137507;1273;22279;-81
2023/04/08 05:22:58;;;;;;;;;;;;;;;;;;137517;1273;22330;-82
2023/04/08 05:26:01;;;;;;;;;;;;;;;;;;137086;1273;22516;-82
2023/04/08 05:29:03;;;;;;;;;;;;;;;;;;137515;1273;22553;-82
2023/04/08 05:32:06;;;;;;;;;;;;;;;;;;137516;1273;22905;-83
2023/04/08 05:35:08;;;;;;;;;;;;;;;;;;137481;1273;22489;-83
2023/04/08 05:38:11;;;;;;;;;;;;;;;;;;137537;1273;22310;-83
2023/04/08 05:41:13;;;;;;;;;;;;;;;;;;137469;1274;22528;-82
2023/04/08 05:44:15;;;;;;;;;;;;;;;;;;137312;1273;22495;-83
2023/04/08 05:47:18;;;;;;;;;;;;;;;;;;137538;1273;22346;-82
2023/04/08 05:50:20;;;;;;;;;;;;;;;;;;137560;1272;22327;-82
2023/04/08 05:53:23;;;;;;;;;;;;;;;;;;137537;1273;22530;-82
2023/04/08 05:56:26;;;;;;;;;;;;;;;;;;137398;1273;22513;-83
2023/04/08 05:59:28;;;;;;;;;;;;;;;;;;137449;1273;22607;-84
2023/04/08 06:02:31;;;;;;;;;;;;;;;;;;137487;1273;22511;-83
2023/04/08 06:05:33;;;;;;;;;;;;;;;;;;137509;1273;22553;-83
2023/04/08 06:08:35;;;;;;;;;;;;;;;;;;137571;1273;22793;-83
2023/04/08 06:11:38;;;;;;;;;;;;;;;;;;137351;1273;23083;-82
2023/04/08 06:14:40;;;;;;;;;;;;;;;;;;137501;1273;22521;-83
2023/04/08 06:17:43;;;;;;;;;;;;;;;;;;137499;1273;22495;-82
2023/04/08 06:20:45;;;;;;;;;;;;;;;;;;137308;1273;22532;-83
2023/04/08 06:23:48;;;;;;;;;;;;;;;;;;137478;1274;22514;-82
2023/04/08 06:26:51;;;;;;;;;;;;;;;;;;137469;1273;22935;-82
2023/04/08 06:29:54;;;;;;;;;;;;;;;;;;137401;1273;22500;-83
2023/04/08 06:32:57;;;;;;;;;;;;;;;;;;137535;1273;22502;-82
2023/04/08 06:35:59;;;;;;;;;;;;;;;;;;137505;1273;22514;-82
2023/04/08 06:39:02;;;;;;;;;;;;;;;;;;137496;1273;22491;-83
2023/04/08 06:42:05;;;;;;;;;;;;;;;;;;137431;1273;22995;-82
2023/04/08 06:45:07;;;;;;;;;;;;;;;;;;137432;1273;22563;-82
2023/04/08 06:48:10;;;;;;;;;;;;;;;;;;137483;1273;22495;-83
2023/04/08 06:51:13;;;;;;;;;;;;;;;;;;137486;1273;22490;-85
2023/04/08 06:54:15;;;;;;;;;;;;;;;;;;137488;1273;22641;-83
2023/04/08 06:57:18;;;;;;;;;;;;;;;;;;137490;1274;22516;-83
2023/04/08 07:00:21;;;;;;;;;;;;;;;;;;137438;1274;22551;-81
2023/04/08 07:03:23;;;;;;;;;;;;;;;;;;137549;1274;22494;-83
2023/04/08 07:06:25;;;;;;;;;;;;;;;;;;137509;1273;22515;-82
2023/04/08 07:09:28;;;;;;;;;;;;;;;;;;137532;1274;22333;-83
2023/04/08 07:12:30;;;;;;;;;;;;;;;;;;137458;1273;22510;-83
2023/04/08 07:15:33;;;;;;;;;;;;;;;;;;137544;1273;22515;-83
2023/04/08 07:18:36;;;;;;;;;;;;;;;;;;137491;1274;23000;-83
2023/04/08 07:21:38;;;;;;;;;;;;;;;;;;137467;1274;22515;-83
2023/04/08 07:24:42;;;;;;;;;;;;;;;;;;137506;1274;22526;-82
2023/04/08 07:27:44;;;;;;;;;;;;;;;;;;137462;1274;22532;-82
2023/04/08 07:30:47;;;;;;;;;;;;;;;;;;137556;1274;22802;-83
2023/04/08 07:33:49;;;;;;;;;;;;;;;;;;137522;1274;22527;-83
2023/04/08 07:36:52;;;;;;;;;;;;;;;;;;137531;1274;22366;-82
2023/04/08 07:39:54;;;;;;;;;;;;;;;;;;137423;1274;22554;-83
2023/04/08 07:42:56;;;;;;;;;;;;;;;;;;137466;1274;22625;-82
2023/04/08 07:46:01;;;;;;;;;;;;;;;;;;137556;1274;22547;-83
2023/04/08 07:49:03;;;;;;;;;;;;;;;;;;137496;1270;22526;-83
2023/04/08 07:52:06;;;;;;;;;;;;;;;;;;137538;1274;22289;-82
2023/04/08 07:55:08;;;;;;;;;;;;;;;;;;137457;1273;23116;-82
2023/04/08 07:58:11;;;;;;;;;;;;;;;;;;137417;1274;22506;-82
2023/04/08 08:01:13;;;;;;;;;;;;;;;;;;137453;1274;22938;-83
2023/04/08 08:04:16;;;;;;;;;;;;;;;;;;137492;1274;22552;-83
2023/04/08 08:07:18;;;;;;;;;;;;;;;;;;137463;1274;22590;-82
2023/04/08 08:10:21;;;;;;;;;;;;;;;;;;137504;1274;23029;-82
2023/04/08 08:13:23;;;;;;;;;;;;;;;;;;137496;1273;23131;-84
2023/04/08 08:16:26;;;;;;;;;;;;;;;;;;137472;1274;25132;-83
2023/04/08 08:19:28;;;;;;;;;;;;;;;;;;137395;1273;22513;-82
2023/04/08 08:22:30;;;;;;;;;;;;;;;;;;137483;1274;22498;-84
2023/04/08 08:25:33;;;;;;;;;;;;;;;;;;137392;1274;22498;-82
2023/04/08 08:28:35;;;;;;;;;;;;;;;;;;137469;1274;22513;-82
2023/04/08 08:31:38;;;;;;;;;;;;;;;;;;137509;1273;22262;-84
2023/04/08 08:34:40;;;;;;;;;;;;;;;;;;137487;1274;22503;-83
2023/04/08 08:37:43;;;;;;;;;;;;;;;;;;137425;1274;22626;-84
2023/04/08 08:40:45;;;;;;;;;;;;;;;;;;137409;1271;22550;-82
2023/04/08 08:43:47;;;;;;;;;;;;;;;;;;137546;1273;22656;-82
2023/04/08 08:46:50;;;;;;;;;;;;;;;;;;137486;1274;22518;-82
2023/04/08 08:49:52;;;;;;;;;;;;;;;;;;137475;1274;22591;-83
2023/04/08 08:52:55;;;;;;;;;;;;;;;;;;137513;1269;22309;-83
2023/04/08 08:55:57;;;;;;;;;;;;;;;;;;137450;1274;22524;-83
2023/04/08 08:59:00;;;;;;;;;;;;;;;;;;137408;1274;22495;-82
2023/04/08 09:02:02;;;;;;;;;;;;;;;;;;137546;1274;22507;-83
2023/04/08 09:05:05;;;;;;;;;;;;;;;;;;137435;1274;22542;-82
2023/04/08 09:08:07;;;;;;;;;;;;;;;;;;137374;1274;22536;-81
2023/04/08 09:11:10;;;;;;;;;;;;;;;;;;137427;1274;22502;-83
2023/04/08 09:14:12;;;;;;;;;;;;;;;;;;137382;1274;22530;-82
2023/04/08 09:17:14;;;;;;;;;;;;;;;;;;137540;1273;22414;-83
2023/04/08 09:20:17;;;;;;;;;;;;;;;;;;137444;1274;22524;-83
2023/04/08 09:23:19;;;;;;;;;;;;;;;;;;137469;1273;22497;-82
2023/04/08 09:26:22;;;;;;;;;;;;;;;;;;137344;1274;22574;-82
2023/04/08 09:29:26;;;;;;;;;;;;;;;;;;137454;1274;22873;-82
2023/04/08 09:32:28;;;;;;;;;;;;;;;;;;137440;1274;22550;-83
2023/04/08 09:35:31;;;;;;;;;;;;;;;;;;137525;1274;22953;-84
2023/04/08 09:38:33;;;;;;;;;;;;;;;;;;137505;1273;22662;-81
2023/04/08 09:41:36;;;;;;;;;;;;;;;;;;137447;1273;23093;-82
2023/04/08 09:44:42;;;;;;;;;;;;;;;;;;137296;1273;22557;-83
2023/04/08 09:47:44;;;;;;;;;;;;;;;;;;137427;1273;22541;-82
2023/04/08 09:50:47;;;;;;;;;;;;;;;;;;137464;1273;22513;-82
2023/04/08 09:53:49;;;;;;;;;;;;;;;;;;137527;1274;22333;-82
2023/04/08 09:56:52;;;;;;;;;;;;;;;;;;137412;1273;22493;-81
2023/04/08 09:59:55;;;;;;;;;;;;;;;;;;137442;1273;23090;-81
2023/04/08 10:02:57;;;;;;;;;;;;;;;;;;137511;1273;22371;-82
2023/04/08 10:06:00;;;;;;;;;;;;;;;;;;137510;1274;22375;-82
2023/04/08 10:09:03;;;;;;;;;;;;;;;;;;137455;1274;22331;-82
2023/04/08 10:12:05;;;;;;;;;;;;;;;;;;137442;1274;22528;-83
2023/04/08 10:15:08;;;;;;;;;;;;;;;;;;137539;1274;22334;-83
2023/04/08 10:18:10;;;;;;;;;;;;;;;;;;137526;1273;23036;-82
2023/04/08 10:21:13;;;;;;;;;;;;;;;;;;137526;1274;22334;-82
2023/04/08 10:24:17;;;;;;;;;;;;;;;;;;137474;1273;22542;-84
2023/04/08 10:27:21;;;;;;;;;;;;;;;;;;137273;1273;22531;-82
2023/04/08 10:30:23;;;;;;;;;;;;;;;;;;137362;1273;22971;-83
2023/04/08 10:33:26;;;;;;;;;;;;;;;;;;137464;1274;22529;-84
2023/04/08 10:36:29;;;;;;;;;;;;;;;;;;137371;1274;22596;-82
2023/04/08 10:39:31;;;;;;;;;;;;;;;;;;137463;1273;22548;-83
2023/04/08 10:42:34;;;;;;;;;;;;;;;;;;137487;1273;22288;-83
2023/04/08 10:45:36;;;;;;;;;;;;;;;;;;137460;1273;22995;-83
2023/04/08 10:48:39;;;;;;;;;;;;;;;;;;137441;1274;22533;-82
2023/04/08 10:51:43;;;;;;;;;;;;;;;;;;137264;1273;22500;-84
2023/04/08 10:54:45;;;;;;;;;;;;;;;;;;137398;1274;23124;-83
2023/04/08 10:57:48;;;;;;;;;;;;;;;;;;137244;1270;22983;-84
2023/04/08 11:00:50;;;;;;;;;;;;;;;;;;137435;1272;22509;-83
2023/04/08 11:03:53;;;;;;;;;;;;;;;;;;137575;1272;22588;-82
2023/04/08 11:06:55;;;;;;;;;;;;;;;;;;137541;1272;22895;-83
2023/04/08 11:09:59;;;;;;;;;;;;;;;;;;137389;1272;219690;-84
2023/04/08 11:13:02;;;;;;;;;;;;;;;;;;137574;1272;22519;-83
2023/04/08 11:16:04;;;;;;;;;;;;;;;;;;137637;1272;22507;-82
2023/04/08 11:19:07;;;;;;;;;;;;;;;;;;137626;1272;22491;-84
2023/04/08 11:22:10;;;;;;;;;;;;;;;;;;137401;1272;22504;-83
2023/04/08 11:25:12;;;;;;;;;;;;;;;;;;137269;1273;22548;-82
2023/04/08 11:28:15;;;;;;;;;;;;;;;;;;137621;1272;22479;-83
2023/04/08 11:31:17;;;;;;;;;;;;;;;;;;137465;1272;22496;-83
2023/04/08 11:34:20;;;;;;;;;;;;;;;;;;137528;1272;22488;-83
2023/04/08 11:37:22;;;;;;;;;;;;;;;;;;137526;1272;22891;-82
2023/04/08 11:40:25;;;;;;;;;;;;;;;;;;137556;1272;22807;-82
2023/04/08 11:43:28;;;;;;;;;;;;;;;;;;137552;1272;22499;-83
2023/04/08 11:46:30;;;;;;;;;;;;;;;;;;137562;1272;22919;-82
2023/04/08 11:49:33;;;;;;;;;;;;;;;;;;137546;1273;22855;-83
2023/04/08 11:52:36;;;;;;;;;;;;;;;;;;137564;1273;22244;-83
2023/04/08 11:55:38;;;;;;;;;;;;;;;;;;137540;1272;22858;-82
2023/04/08 11:58:41;;;;;;;;;;;;;;;;;;137557;1273;22441;-83
2023/04/08 12:01:43;;;;;;;;;;;;;;;;;;137260;1272;22664;-82
2023/04/08 12:04:46;;;;;;;;;;;;;;;;;;137394;1273;22491;-84
2023/04/08 12:07:48;;;;;;;;;;;;;;;;;;137487;1272;23026;-84
2023/04/08 12:10:51;;;;;;;;;;;;;;;;;;137363;1272;22629;-82
2023/04/08 12:13:53;;;;;;;;;;;;;;;;;;137344;1272;22541;-83
2023/04/08 12:16:56;;;;;;;;;;;;;;;;;;137506;1272;22985;-82
2023/04/08 12:19:58;;;;;;;;;;;;;;;;;;137392;1272;22511;-83
2023/04/08 12:23:00;;;;;;;;;;;;;;;;;;137383;1272;22521;-83
2023/04/08 12:26:03;;;;;;;;;;;;;;;;;;137428;1272;22786;-82
2023/04/08 12:29:08;;;;;;;;;;;;;;;;;;137468;1267;22525;-83
2023/04/08 12:32:11;;;;;;;;;;;;;;;;;;137486;1272;22977;-82
2023/04/08 12:35:13;;;;;;;;;;;;;;;;;;137495;1272;22571;-82
2023/04/08 12:38:16;;;;;;;;;;;;;;;;;;137468;1272;22580;-83
2023/04/08 12:41:18;;;;;;;;;;;;;;;;;;137480;1272;22863;-85
2023/04/08 12:44:21;;;;;;;;;;;;;;;;;;137301;1272;22530;-83
2023/04/08 12:47:23;;;;;;;;;;;;;;;;;;137545;1272;22300;-84
2023/04/08 12:50:26;;;;;;;;;;;;;;;;;;137505;1272;22607;-83
2023/04/08 12:53:28;;;;;;;;;;;;;;;;;;137333;1272;22546;-83
2023/04/08 12:56:30;;;;;;;;;;;;;;;;;;137503;1272;22567;-84
2023/04/08 12:59:33;;;;;;;;;;;;;;;;;;137424;1272;22536;-83
2023/04/08 13:02:35;;;;;;;;;;;;;;;;;;137479;1272;22531;-84
2023/04/08 13:05:38;;;;;;;;;;;;;;;;;;137350;1272;22534;-84
2023/04/08 13:08:40;;;;;;;;;;;;;;;;;;137361;1272;22947;-84
2023/04/08 13:11:43;;;;;;;;;;;;;;;;;;137260;1272;22503;-83
2023/04/08 13:14:48;;;;;;;;;;;;;;;;;;137269;1272;23085;-84
2023/04/08 13:17:51;;;;;;;;;;;;;;;;;;137231;1272;22561;-83
2023/04/08 13:20:56;;;;;;;;;;;;;;;;;;137170;1272;22521;-87
2023/04/08 13:23:59;;;;;;;;;;;;;;;;;;137426;1272;22540;-83
2023/04/08 13:27:02;;;;;;;;;;;;;;;;;;137483;1269;23030;-83
2023/04/08 13:30:07;;;;;;;;;;;;;;;;;;137231;1272;22495;-82
2023/04/08 13:33:11;;;;;;;;;;;;;;;;;;136823;1272;22944;-83
2023/04/08 13:36:15;;;;;;;;;;;;;;;;;;136530;1272;22524;-84
2023/04/08 13:39:17;;;;;;;;;;;;;;;;;;136347;1272;22522;-84
2023/04/08 13:42:30;;;;;;;;;;;;;;;;;;136895;1272;22506;-84
2023/04/08 13:45:32;;;;;;;;;;;;;;;;;;136901;1272;22542;-82
2023/04/08 13:48:35;;;;;;;;;;;;;;;;;;137248;1270;22630;-84
2023/04/08 13:51:37;;;;;;;;;;;;;;;;;;137253;1272;22506;-82
2023/04/08 13:54:40;;;;;;;;;;;;;;;;;;136510;1272;25839;-83
2023/04/08 13:57:42;;;;;;;;;;;;;;;;;;137185;1272;24905;-83
2023/04/08 14:00:45;;;;;;;;;;;;;;;;;;137346;1272;23028;-82
2023/04/08 14:03:48;;;;;;;;;;;;;;;;;;137020;1272;22539;-83
2023/04/08 14:06:52;;;;;;;;;;;;;;;;;;136578;1272;22590;-83
2023/04/08 14:09:54;;;;;;;;;;;;;;;;;;137100;1272;22648;-83
2023/04/08 14:12:56;;;;;;;;;;;;;;;;;;137257;1272;22527;-83
2023/04/08 14:16:01;;;;;;;;;;;;;;;;;;137531;1272;22544;-83
2023/04/08 14:19:04;;;;;;;;;;;;;;;;;;137300;1272;22543;-83
2023/04/08 14:22:06;;;;;;;;;;;;;;;;;;137192;1272;22567;-83
2023/04/08 14:25:09;;;;;;;;;;;;;;;;;;137247;1272;22481;-83
2023/04/08 14:28:11;;;;;;;;;;;;;;;;;;137268;1272;22534;-83
2023/04/08 14:31:14;;;;;;;;;;;;;;;;;;137341;1272;22594;-82
2023/04/08 14:34:16;;;;;;;;;;;;;;;;;;137453;1272;22528;-82
2023/04/08 14:37:19;;;;;;;;;;;;;;;;;;137211;1265;22519;-83
2023/04/08 14:40:21;;;;;;;;;;;;;;;;;;137378;1272;22675;-83
2023/04/08 14:43:24;;;;;;;;;;;;;;;;;;137527;1272;22538;-84
2023/04/08 14:46:26;;;;;;;;;;;;;;;;;;137528;1272;22514;-84
2023/04/08 14:49:29;;;;;;;;;;;;;;;;;;137570;1272;22546;-85
2023/04/08 14:52:31;;;;;;;;;;;;;;;;;;137415;1272;22585;-84
2023/04/08 14:55:34;;;;;;;;;;;;;;;;;;137405;1272;22509;-84
2023/04/08 14:58:36;;;;;;;;;;;;;;;;;;137454;1272;22921;-84
2023/04/08 15:01:40;;;;;;;;;;;;;;;;;;137527;1272;22428;-83
2023/04/08 15:04:42;;;;;;;;;;;;;;;;;;137431;1272;22480;-84
2023/04/08 15:07:45;;;;;;;;;;;;;;;;;;137475;1272;22929;-84
2023/04/08 15:10:48;;;;;;;;;;;;;;;;;;137512;1272;22627;-84
2023/04/08 15:13:51;;;;;;;;;;;;;;;;;;137455;1272;22507;-83
2023/04/08 15:16:53;;;;;;;;;;;;;;;;;;137473;1272;22500;-82
2023/04/08 15:19:57;;;;;;;;;;;;;;;;;;137550;1272;22336;-83
2023/04/08 15:23:00;;;;;;;;;;;;;;;;;;137531;1272;22493;-83
2023/04/08 15:26:02;;;;;;;;;;;;;;;;;;137391;1272;22548;-83
2023/04/08 15:29:05;;;;;;;;;;;;;;;;;;137419;1272;22532;-83
2023/04/08 15:32:07;;;;;;;;;;;;;;;;;;137528;1272;22975;-83
2023/04/08 15:35:09;;;;;;;;;;;;;;;;;;137496;1272;22528;-84
2023/04/08 15:38:12;;;;;;;;;;;;;;;;;;137410;1272;22493;-84
2023/04/08 15:41:14;;;;;;;;;;;;;;;;;;137304;1272;22554;-84
2023/04/08 15:44:17;;;;;;;;;;;;;;;;;;137416;1272;22571;-84
2023/04/08 15:47:19;;;;;;;;;;;;;;;;;;137299;1272;22982;-84
2023/04/08 15:50:23;;;;;;;;;;;;;;;;;;136831;1272;22544;-85
2023/04/08 15:53:25;;;;;;;;;;;;;;;;;;137185;1272;22970;-85
2023/04/08 15:56:28;;;;;;;;;;;;;;;;;;137275;1272;24183;-85
2023/04/08 15:59:31;;;;;;;;;;;;;;;;;;136849;1272;22537;-83
2023/04/08 16:02:33;;;;;;;;;;;;;;;;;;137139;1272;22865;-84
2023/04/08 16:05:38;;;;;;;;;;;;;;;;;;137464;1272;22554;-84
2023/04/08 16:08:41;;;;;;;;;;;;;;;;;;137022;1272;22536;-83
2023/04/08 16:11:43;;;;;;;;;;;;;;;;;;137226;1273;22563;-84
2023/04/08 16:14:46;;;;;;;;;;;;;;;;;;137209;1272;22534;-83
2023/04/08 16:17:49;;;;;;;;;;;;;;;;;;137472;1272;22865;-82
2023/04/08 16:20:51;;;;;;;;;;;;;;;;;;137488;1273;22944;-82
2023/04/08 16:23:54;;;;;;;;;;;;;;;;;;137500;1272;22332;-82
2023/04/08 16:26:57;;;;;;;;;;;;;;;;;;137519;1272;22958;-82
2023/04/08 16:30:02;;;;;;;;;;;;;;;;;;137441;1272;22505;-82
2023/04/08 16:33:04;;;;;;;;;;;;;;;;;;137501;1272;22510;-82
2023/04/08 16:36:07;;;;;;;;;;;;;;;;;;137425;1272;22564;-83
2023/04/08 16:39:09;;;;;;;;;;;;;;;;;;137468;1272;22551;-83
2023/04/08 16:42:12;;;;;;;;;;;;;;;;;;137594;1272;22330;-83
2023/04/08 16:45:14;;;;;;;;;;;;;;;;;;137537;1272;22462;-83
2023/04/08 16:48:17;;;;;;;;;;;;;;;;;;137565;1272;23085;-83
2023/04/08 16:51:20;;;;;;;;;;;;;;;;;;137455;1272;22535;-83
2023/04/08 16:54:22;;;;;;;;;;;;;;;;;;137271;1272;22528;-81
2023/04/08 16:57:25;;;;;;;;;;;;;;;;;;137247;1272;22555;-81
2023/04/08 17:00:27;;;;;;;;;;;;;;;;;;137592;1265;22539;-81
2023/04/08 17:03:31;;;;;;;;;;;;;;;;;;137371;1272;24857;-82
2023/04/08 17:06:35;;;;;;;;;;;;;;;;;;137355;1272;23024;-82
2023/04/08 17:09:37;;;;;;;;;;;;;;;;;;137451;1272;22474;-82
2023/04/08 17:12:42;;;;;;;;;;;;;;;;;;137248;1272;22522;-81
2023/04/08 17:15:45;;;;;;;;;;;;;;;;;;137434;1272;22517;-82
2023/04/08 17:18:47;;;;;;;;;;;;;;;;;;137472;1272;22506;-82
2023/04/08 17:21:50;;;;;;;;;;;;;;;;;;137435;1272;22535;-82
2023/04/08 17:24:53;;;;;;;;;;;;;;;;;;137527;1272;22547;-81
2023/04/08 17:27:55;;;;;;;;;;;;;;;;;;137293;1272;22497;-81
2023/04/08 17:30:57;;;;;;;;;;;;;;;;;;137623;1272;22305;-81
2023/04/08 17:34:00;;;;;;;;;;;;;;;;;;137600;1272;22546;-82
2023/04/08 17:37:04;;;;;;;;;;;;;;;;;;137537;1272;22489;-82
2023/04/08 17:40:06;;;;;;;;;;;;;;;;;;137508;1273;22478;-83
2023/04/08 17:43:08;;;;;;;;;;;;;;;;;;137333;1272;22493;-83
2023/04/08 17:46:11;;;;;;;;;;;;;;;;;;137212;1268;22974;-81
2023/04/08 17:49:13;;;;;;;;;;;;;;;;;;137538;1272;23091;-81
2023/04/08 17:52:16;;;;;;;;;;;;;;;;;;137299;1272;22539;-82
2023/04/08 17:55:18;;;;;;;;;;;;;;;;;;137405;1272;22501;-81
2023/04/08 17:58:21;;;;;;;;;;;;;;;;;;137627;1272;22497;-81
2023/04/08 18:01:23;;;;;;;;;;;;;;;;;;137568;1272;22543;-82
2023/04/08 18:04:27;;;;;;;;;;;;;;;;;;137543;1272;22642;-81
2023/04/08 18:07:29;;;;;;;;;;;;;;;;;;137600;1272;22518;-81
2023/04/08 18:10:32;;;;;;;;;;;;;;;;;;137387;1272;22525;-82
2023/04/08 18:13:34;;;;;;;;;;;;;;;;;;137571;1272;22473;-82
2023/04/08 18:16:36;;;;;;;;;;;;;;;;;;137487;1272;23264;-81
2023/04/08 18:19:39;;;;;;;;;;;;;;;;;;137518;1272;22506;-83
2023/04/08 18:22:41;;;;;;;;;;;;;;;;;;137581;1272;22496;-81
2023/04/08 18:25:44;;;;;;;;;;;;;;;;;;137619;1272;22385;-82
2023/04/08 18:28:46;;;;;;;;;;;;;;;;;;137659;1272;22359;-82
2023/04/08 18:31:48;;;;;;;;;;;;;;;;;;137575;1272;22537;-82
2023/04/08 18:34:51;;;;;;;;;;;;;;;;;;137512;1272;23398;-80
2023/04/08 18:37:55;;;;;;;;;;;;;;;;;;137365;1265;22570;-83
2023/04/08 18:41:00;;;;;;;;;;;;;;;;;;137504;1272;22491;-81
2023/04/08 18:44:02;;;;;;;;;;;;;;;;;;137661;1272;22762;-82
2023/04/08 18:47:06;;;;;;;;;;;;;;;;;;137401;1270;22606;-82
2023/04/08 18:50:08;;;;;;;;;;;;;;;;;;137525;1272;22791;-82
2023/04/08 18:53:11;;;;;;;;;;;;;;;;;;137594;1272;22989;-82
2023/04/08 18:56:13;;;;;;;;;;;;;;;;;;137500;1272;22483;-82
2023/04/08 18:59:16;;;;;;;;;;;;;;;;;;137647;1273;22414;-82
2023/04/08 19:02:18;;;;;;;;;;;;;;;;;;137588;1272;22829;-82
2023/04/08 19:05:21;;;;;;;;;;;;;;;;;;137471;1272;22509;-82
2023/04/08 19:08:24;;;;;;;;;;;;;;;;;;137517;1272;22567;-81
2023/04/08 19:11:27;;;;;;;;;;;;;;;;;;137511;1272;22988;-82
2023/04/08 19:14:30;;;;;;;;;;;;;;;;;;137663;1273;22813;-82
2023/04/08 19:17:32;;;;;;;;;;;;;;;;;;137649;1272;22507;-82
2023/04/08 19:20:35;;;;;;;;;;;;;;;;;;137427;1272;22544;-82
2023/04/08 19:23:37;;;;;;;;;;;;;;;;;;137618;1272;22324;-82
2023/04/08 19:26:39;;;;;;;;;;;;;;;;;;137520;1272;22478;-82
2023/04/08 19:29:42;;;;;;;;;;;;;;;;;;137620;1272;22975;-82
2023/04/08 19:32:45;;;;;;;;;;;;;;;;;;137519;1272;22585;-82
2023/04/08 19:35:48;;;;;;;;;;;;;;;;;;137559;1272;22512;-83
2023/04/08 19:38:50;;;;;;;;;;;;;;;;;;137479;1272;22522;-82
2023/04/08 19:41:52;;;;;;;;;;;;;;;;;;137539;1272;22529;-81
2023/04/08 19:44:55;;;;;;;;;;;;;;;;;;137425;1272;22488;-82
2023/04/08 19:47:57;;;;;;;;;;;;;;;;;;137643;1272;22494;-82
2023/04/08 19:51:02;;;;;;;;;;;;;;;;;;137556;1272;23122;-81
2023/04/08 19:54:04;;;;;;;;;;;;;;;;;;137591;1273;22581;-82
2023/04/08 19:57:09;;;;;;;;;;;;;;;;;;137423;1273;22498;-81
2023/04/08 20:00:12;;;;;;;;;;;;;;;;;;137579;1272;22504;-82
2023/04/08 20:03:14;;;;;;;;;;;;;;;;;;137549;1271;22529;-81
2023/04/08 20:06:17;;;;;;;;;;;;;;;;;;137560;1272;23193;-82
2023/04/08 20:09:19;;;;;;;;;;;;;;;;;;137565;1272;22525;-82
2023/04/08 20:12:22;;;;;;;;;;;;;;;;;;137563;1273;22515;-81
2023/04/08 20:15:24;;;;;;;;;;;;;;;;;;137597;1273;22514;-82
2023/04/08 20:18:27;;;;;;;;;;;;;;;;;;137566;1272;22533;-83
2023/04/08 20:21:29;;;;;;;;;;;;;;;;;;137564;1272;22482;-83
2023/04/08 20:24:32;;;;;;;;;;;;;;;;;;137436;1272;23096;-82